Terminal Aerodrome Forecast
Issued by NWS

Home | Current Version | Previous Version | Text Only | Print | Product List | Glossary On
Versions: 1 2 3 4 5 6 7 8 9 10 11 12 13 14 15 16 17 18 19 20 21 22 23 24 25 26 27 28 29 30
000
FTPA31 PHFO 281700
TAFOGG
TAF
PHOG 281739Z 2818/2918 VRB05KT P6SM FEW025 SCT040
     FM282000 07014G22KT P6SM FEW025 SCT050
     FM290500 05009KT P6SM FEW025
     FM291000 15006KT P6SM FEW025
      AMD LTD TO WX VIS AND WIND 2909/2916=

USA.gov is the U.S. government's official web portal to all federal, state and local government web resources and services.